KART/ART METAR and TAF weather

Enter ICAO airport designator
Station Type Date Time Source
KART METAR 2020/08/11 17:56 UTC NOAA

KART 111756Z AUTO 22011G18KT 10SM FEW070 31/19 A2981 RMK AO2 SLP086 T03110189 10317 20244 58014 $


Station Type Date Time Source
KART Decoded METAR 2020/08/11 17:56 UTC NOAA

WATERTOWN INTERNATIONAL AIRPORT, NY, United States (KART) 43-59N 076-02W 100M
Aug 11, 2020 - 01:56 PM EDT / 2020.08.11 1756 UTC
Wind: from the SW (220 degrees) at 13 MPH (11 KT) gusting to 21 MPH (18 KT):0
Visibility: 10 mile(s):0
Sky conditions: mostly clear
Temperature: 88.0 F (31.1 C)
Dew Point: 66.0 F (18.9 C)
Relative Humidity: 48%
Pressure (altimeter): 29.81 in. Hg (1009 hPa)
Pressure tendency: 0.04 inches (1.4 hPa) lower than three hours ago
ob: KART 111756Z AUTO 22011G18KT 10SM FEW070 31/19 A2981 RMK AO2 SLP086 T03110189 10317 20244 58014
cycle: 18

Station Type Date Time Source
KART TAF 2020/08/11 18:33 UTC NOAA

TAF KART 111730Z 1118/1218 20011G20KT P6SM SKC
FM112100 24015KT P6SM VCTS SCT060CB
FM112200 24014G20KT P6SM SCT060
FM120000 25009KT P6SM FEW070
FM121300 24004KT P6SM FEW250

Example: see airport list